sensor_id;sensor_type;location;lat;lon;timestamp;P1;durP1;ratioP1;P2;durP2;ratioP2
59685;SDS011;45554;51.096;16.976;2022-10-17T00:01:06;26.40;;;18.10;;
59685;SDS011;45554;51.096;16.976;2022-10-17T00:06:06;26.10;;;17.70;;
59685;SDS011;45554;51.096;16.976;2022-10-17T00:08:37;28.40;;;19.70;;
59685;SDS011;45554;51.096;16.976;2022-10-17T00:11:06;28.30;;;18.90;;
59685;SDS011;45554;51.096;16.976;2022-10-17T00:13:40;27.20;;;18.30;;
59685;SDS011;45554;51.096;16.976;2022-10-17T00:16:10;27.50;;;19.20;;
59685;SDS011;45554;51.096;16.976;2022-10-17T00:18:39;26.30;;;18.60;;
59685;SDS011;45554;51.096;16.976;2022-10-17T00:21:13;27.70;;;18.80;;
59685;SDS011;45554;51.096;16.976;2022-10-17T00:23:42;28.20;;;18.10;;
59685;SDS011;45554;51.096;16.976;2022-10-17T00:26:09;29.20;;;18.70;;
59685;SDS011;45554;51.096;16.976;2022-10-17T00:28:37;26.10;;;18.50;;
59685;SDS011;45554;51.096;16.976;2022-10-17T00:31:06;28.10;;;19.20;;
59685;SDS011;45554;51.096;16.976;2022-10-17T00:33:34;23.80;;;16.60;;
59685;SDS011;45554;51.096;16.976;2022-10-17T00:36:13;25.60;;;17.80;;
59685;SDS011;45554;51.096;16.976;2022-10-17T00:38:46;28.40;;;18.60;;
59685;SDS011;45554;51.096;16.976;2022-10-17T00:41:19;27.00;;;18.60;;
59685;SDS011;45554;51.096;16.976;2022-10-17T00:43:57;27.70;;;17.50;;
59685;SDS011;45554;51.096;16.976;2022-10-17T00:46:33;23.30;;;16.80;;
59685;SDS011;45554;51.096;16.976;2022-10-17T00:49:09;25.30;;;17.70;;
59685;SDS011;45554;51.096;16.976;2022-10-17T00:51:40;24.10;;;17.60;;
59685;SDS011;45554;51.096;16.976;2022-10-17T00:54:13;24.20;;;17.40;;
59685;SDS011;45554;51.096;16.976;2022-10-17T00:56:42;26.90;;;17.80;;
59685;SDS011;45554;51.096;16.976;2022-10-17T00:59:15;27.20;;;18.60;;
59685;SDS011;45554;51.096;16.976;2022-10-17T01:01:55;25.50;;;17.60;;
59685;SDS011;45554;51.096;16.976;2022-10-17T01:04:36;25.70;;;18.00;;
59685;SDS011;45554;51.096;16.976;2022-10-17T01:07:15;27.40;;;16.50;;
59685;SDS011;45554;51.096;16.976;2022-10-17T01:09:51;25.30;;;17.50;;
59685;SDS011;45554;51.096;16.976;2022-10-17T01:15:58;26.90;;;19.10;;
59685;SDS011;45554;51.096;16.976;2022-10-17T01:21:30;28.30;;;18.30;;
59685;SDS011;45554;51.096;16.976;2022-10-17T01:27:25;25.00;;;16.80;;
59685;SDS011;45554;51.096;16.976;2022-10-17T01:33:01;26.20;;;17.30;;
59685;SDS011;45554;51.096;16.976;2022-10-17T01:38:24;27.10;;;17.50;;
59685;SDS011;45554;51.096;16.976;2022-10-17T01:44:20;28.10;;;17.70;;
59685;SDS011;45554;51.096;16.976;2022-10-17T01:46:56;28.20;;;18.20;;
59685;SDS011;45554;51.096;16.976;2022-10-17T01:52:05;25.50;;;17.30;;
59685;SDS011;45554;51.096;16.976;2022-10-17T01:55:03;28.50;;;18.30;;
59685;SDS011;45554;51.096;16.976;2022-10-17T01:57:37;27.10;;;18.30;;
59685;SDS011;45554;51.096;16.976;2022-10-17T02:00:10;29.00;;;19.00;;
59685;SDS011;45554;51.096;16.976;2022-10-17T02:03:00;27.50;;;18.90;;
59685;SDS011;45554;51.096;16.976;2022-10-17T02:05:34;30.30;;;20.00;;
59685;SDS011;45554;51.096;16.976;2022-10-17T02:08:07;29.20;;;19.10;;
59685;SDS011;45554;51.096;16.976;2022-10-17T02:16:20;30.90;;;20.20;;
59685;SDS011;45554;51.096;16.976;2022-10-17T02:19:19;28.70;;;19.60;;
59685;SDS011;45554;51.096;16.976;2022-10-17T02:27:37;27.10;;;18.40;;
59685;SDS011;45554;51.096;16.976;2022-10-17T02:30:14;28.20;;;19.00;;
59685;SDS011;45554;51.096;16.976;2022-10-17T02:32:55;29.50;;;19.00;;
59685;SDS011;45554;51.096;16.976;2022-10-17T02:35:29;28.10;;;18.70;;
59685;SDS011;45554;51.096;16.976;2022-10-17T02:38:02;30.30;;;19.00;;
59685;SDS011;45554;51.096;16.976;2022-10-17T02:40:33;26.60;;;17.50;;
59685;SDS011;45554;51.096;16.976;2022-10-17T02:43:02;26.20;;;16.70;;
59685;SDS011;45554;51.096;16.976;2022-10-17T02:45:31;28.70;;;19.20;;
59685;SDS011;45554;51.096;16.976;2022-10-17T02:48:05;27.30;;;18.30;;
59685;SDS011;45554;51.096;16.976;2022-10-17T02:50:40;26.20;;;18.00;;
59685;SDS011;45554;51.096;16.976;2022-10-17T02:53:31;27.80;;;18.40;;
59685;SDS011;45554;51.096;16.976;2022-10-17T02:56:09;27.90;;;18.10;;
59685;SDS011;45554;51.096;16.976;2022-10-17T02:58:47;28.20;;;17.30;;
59685;SDS011;45554;51.096;16.976;2022-10-17T03:01:25;23.70;;;17.10;;
59685;SDS011;45554;51.096;16.976;2022-10-17T03:04:04;25.20;;;17.40;;
59685;SDS011;45554;51.096;16.976;2022-10-17T03:06:37;24.80;;;17.80;;
59685;SDS011;45554;51.096;16.976;2022-10-17T03:09:05;22.40;;;16.30;;
59685;SDS011;45554;51.096;16.976;2022-10-17T03:11:35;24.60;;;17.60;;
59685;SDS011;45554;51.096;16.976;2022-10-17T03:14:03;28.00;;;17.10;;
59685;SDS011;45554;51.096;16.976;2022-10-17T03:16:31;24.20;;;16.20;;
59685;SDS011;45554;51.096;16.976;2022-10-17T03:18:59;26.10;;;16.50;;
59685;SDS011;45554;51.096;16.976;2022-10-17T03:21:27;29.80;;;19.10;;
59685;SDS011;45554;51.096;16.976;2022-10-17T03:23:56;28.80;;;18.00;;
59685;SDS011;45554;51.096;16.976;2022-10-17T03:26:24;27.40;;;18.40;;
59685;SDS011;45554;51.096;16.976;2022-10-17T03:28:52;27.60;;;18.80;;
59685;SDS011;45554;51.096;16.976;2022-10-17T03:31:21;27.30;;;18.40;;
59685;SDS011;45554;51.096;16.976;2022-10-17T03:33:50;28.30;;;18.40;;
59685;SDS011;45554;51.096;16.976;2022-10-17T03:36:20;26.40;;;17.50;;
59685;SDS011;45554;51.096;16.976;2022-10-17T03:38:52;26.10;;;18.00;;
59685;SDS011;45554;51.096;16.976;2022-10-17T03:41:22;28.90;;;17.50;;
59685;SDS011;45554;51.096;16.976;2022-10-17T03:43:51;28.20;;;17.80;;
59685;SDS011;45554;51.096;16.976;2022-10-17T03:46:20;26.40;;;17.60;;
59685;SDS011;45554;51.096;16.976;2022-10-17T03:48:48;28.30;;;18.40;;
59685;SDS011;45554;51.096;16.976;2022-10-17T03:51:16;28.40;;;18.70;;
59685;SDS011;45554;51.096;16.976;2022-10-17T03:53:50;32.80;;;20.30;;
59685;SDS011;45554;51.096;16.976;2022-10-17T03:56:19;28.20;;;19.40;;
59685;SDS011;45554;51.096;16.976;2022-10-17T03:58:57;31.90;;;20.70;;
59685;SDS011;45554;51.096;16.976;2022-10-17T04:01:26;30.10;;;19.60;;
59685;SDS011;45554;51.096;16.976;2022-10-17T04:03:56;29.20;;;19.30;;
59685;SDS011;45554;51.096;16.976;2022-10-17T04:06:26;28.80;;;18.20;;
59685;SDS011;45554;51.096;16.976;2022-10-17T04:08:54;32.80;;;20.40;;
59685;SDS011;45554;51.096;16.976;2022-10-17T04:11:27;29.60;;;19.80;;
59685;SDS011;45554;51.096;16.976;2022-10-17T04:13:58;28.80;;;18.50;;
59685;SDS011;45554;51.096;16.976;2022-10-17T04:16:27;27.80;;;19.40;;
59685;SDS011;45554;51.096;16.976;2022-10-17T04:19:01;28.80;;;19.40;;
59685;SDS011;45554;51.096;16.976;2022-10-17T04:21:37;32.40;;;20.00;;
59685;SDS011;45554;51.096;16.976;2022-10-17T04:24:08;30.90;;;18.80;;
59685;SDS011;45554;51.096;16.976;2022-10-17T04:26:50;28.10;;;19.20;;
59685;SDS011;45554;51.096;16.976;2022-10-17T04:29:19;31.30;;;20.10;;
59685;SDS011;45554;51.096;16.976;2022-10-17T04:31:50;28.60;;;19.50;;
59685;SDS011;45554;51.096;16.976;2022-10-17T04:34:24;30.90;;;18.00;;
59685;SDS011;45554;51.096;16.976;2022-10-17T04:36:52;31.10;;;19.90;;
59685;SDS011;45554;51.096;16.976;2022-10-17T04:39:21;30.80;;;20.20;;
59685;SDS011;45554;51.096;16.976;2022-10-17T04:41:49;29.70;;;19.40;;
59685;SDS011;45554;51.096;16.976;2022-10-17T04:44:18;30.20;;;19.40;;
59685;SDS011;45554;51.096;16.976;2022-10-17T04:46:50;32.60;;;20.70;;
59685;SDS011;45554;51.096;16.976;2022-10-17T04:49:19;29.90;;;19.80;;
59685;SDS011;45554;51.096;16.976;2022-10-17T04:51:49;28.00;;;19.10;;
59685;SDS011;45554;51.096;16.976;2022-10-17T04:57:08;29.80;;;19.50;;
59685;SDS011;45554;51.096;16.976;2022-10-17T04:59:38;33.40;;;20.40;;
59685;SDS011;45554;51.096;16.976;2022-10-17T05:02:17;30.20;;;19.50;;
59685;SDS011;45554;51.096;16.976;2022-10-17T05:04:45;32.40;;;19.20;;
59685;SDS011;45554;51.096;16.976;2022-10-17T05:07:13;30.10;;;19.50;;
59685;SDS011;45554;51.096;16.976;2022-10-17T05:09:57;30.70;;;20.30;;
59685;SDS011;45554;51.096;16.976;2022-10-17T05:12:26;33.20;;;19.50;;
59685;SDS011;45554;51.096;16.976;2022-10-17T05:14:54;31.70;;;19.90;;
59685;SDS011;45554;51.096;16.976;2022-10-17T05:17:23;30.20;;;20.10;;
59685;SDS011;45554;51.096;16.976;2022-10-17T05:19:52;29.60;;;19.30;;
59685;SDS011;45554;51.096;16.976;2022-10-17T05:22:20;29.30;;;18.90;;
59685;SDS011;45554;51.096;16.976;2022-10-17T05:24:48;28.80;;;19.00;;
59685;SDS011;45554;51.096;16.976;2022-10-17T05:27:17;29.20;;;19.00;;
59685;SDS011;45554;51.096;16.976;2022-10-17T05:29:44;28.00;;;18.80;;
59685;SDS011;45554;51.096;16.976;2022-10-17T05:32:23;31.80;;;20.70;;
59685;SDS011;45554;51.096;16.976;2022-10-17T05:34:51;31.20;;;20.20;;
59685;SDS011;45554;51.096;16.976;2022-10-17T05:37:22;28.50;;;19.60;;
59685;SDS011;45554;51.096;16.976;2022-10-17T05:39:51;32.00;;;20.20;;
59685;SDS011;45554;51.096;16.976;2022-10-17T05:42:19;31.10;;;20.30;;
59685;SDS011;45554;51.096;16.976;2022-10-17T05:44:47;26.80;;;18.50;;
59685;SDS011;45554;51.096;16.976;2022-10-17T05:47:16;30.30;;;19.00;;
59685;SDS011;45554;51.096;16.976;2022-10-17T05:49:45;34.00;;;20.30;;
59685;SDS011;45554;51.096;16.976;2022-10-17T05:52:21;34.50;;;19.80;;
59685;SDS011;45554;51.096;16.976;2022-10-17T05:54:58;33.40;;;19.90;;
59685;SDS011;45554;51.096;16.976;2022-10-17T05:57:26;33.20;;;20.10;;
59685;SDS011;45554;51.096;16.976;2022-10-17T05:59:55;33.20;;;21.30;;
59685;SDS011;45554;51.096;16.976;2022-10-17T06:02:24;30.00;;;19.40;;
59685;SDS011;45554;51.096;16.976;2022-10-17T06:04:51;29.10;;;19.50;;
59685;SDS011;45554;51.096;16.976;2022-10-17T06:07:20;28.00;;;18.80;;
59685;SDS011;45554;51.096;16.976;2022-10-17T06:09:48;30.80;;;20.90;;
59685;SDS011;45554;51.096;16.976;2022-10-17T06:12:16;28.20;;;17.70;;
59685;SDS011;45554;51.096;16.976;2022-10-17T06:14:46;32.90;;;19.20;;
59685;SDS011;45554;51.096;16.976;2022-10-17T06:17:15;32.70;;;19.30;;
59685;SDS011;45554;51.096;16.976;2022-10-17T06:19:43;30.60;;;19.20;;
59685;SDS011;45554;51.096;16.976;2022-10-17T06:22:13;31.40;;;19.30;;
59685;SDS011;45554;51.096;16.976;2022-10-17T06:24:42;29.00;;;18.60;;
59685;SDS011;45554;51.096;16.976;2022-10-17T06:27:12;29.90;;;18.40;;
59685;SDS011;45554;51.096;16.976;2022-10-17T06:29:41;28.80;;;18.70;;
59685;SDS011;45554;51.096;16.976;2022-10-17T06:32:09;26.90;;;18.60;;
59685;SDS011;45554;51.096;16.976;2022-10-17T06:34:42;26.50;;;17.70;;
59685;SDS011;45554;51.096;16.976;2022-10-17T06:37:11;31.90;;;20.30;;
59685;SDS011;45554;51.096;16.976;2022-10-17T06:39:41;25.90;;;17.50;;
59685;SDS011;45554;51.096;16.976;2022-10-17T06:42:13;26.70;;;18.00;;
59685;SDS011;45554;51.096;16.976;2022-10-17T06:45:07;30.50;;;17.90;;
59685;SDS011;45554;51.096;16.976;2022-10-17T06:47:42;26.20;;;17.40;;
59685;SDS011;45554;51.096;16.976;2022-10-17T06:50:26;29.00;;;17.60;;
59685;SDS011;45554;51.096;16.976;2022-10-17T06:53:28;24.30;;;16.70;;
59685;SDS011;45554;51.096;16.976;2022-10-17T06:56:14;29.90;;;19.20;;
59685;SDS011;45554;51.096;16.976;2022-10-17T06:59:05;27.40;;;17.70;;
59685;SDS011;45554;51.096;16.976;2022-10-17T07:01:41;29.00;;;18.60;;
59685;SDS011;45554;51.096;16.976;2022-10-17T07:04:15;27.70;;;17.60;;
59685;SDS011;45554;51.096;16.976;2022-10-17T07:06:43;26.80;;;17.40;;
59685;SDS011;45554;51.096;16.976;2022-10-17T07:09:17;27.50;;;18.30;;
59685;SDS011;45554;51.096;16.976;2022-10-17T07:11:47;24.50;;;17.10;;
59685;SDS011;45554;51.096;16.976;2022-10-17T07:14:18;26.70;;;16.40;;
59685;SDS011;45554;51.096;16.976;2022-10-17T07:16:46;38.60;;;19.00;;
59685;SDS011;45554;51.096;16.976;2022-10-17T07:19:20;26.60;;;17.10;;
59685;SDS011;45554;51.096;16.976;2022-10-17T07:21:49;25.90;;;17.00;;
59685;SDS011;45554;51.096;16.976;2022-10-17T07:24:17;24.70;;;17.00;;
59685;SDS011;45554;51.096;16.976;2022-10-17T07:26:48;22.00;;;15.70;;
59685;SDS011;45554;51.096;16.976;2022-10-17T07:29:17;25.40;;;17.00;;
59685;SDS011;45554;51.096;16.976;2022-10-17T07:31:56;24.70;;;16.00;;
59685;SDS011;45554;51.096;16.976;2022-10-17T07:34:24;31.70;;;17.50;;
59685;SDS011;45554;51.096;16.976;2022-10-17T07:36:54;23.00;;;15.90;;
59685;SDS011;45554;51.096;16.976;2022-10-17T07:39:22;23.80;;;16.00;;
59685;SDS011;45554;51.096;16.976;2022-10-17T07:41:51;25.10;;;17.60;;
59685;SDS011;45554;51.096;16.976;2022-10-17T07:44:19;20.90;;;14.90;;
59685;SDS011;45554;51.096;16.976;2022-10-17T07:46:49;23.50;;;15.40;;
59685;SDS011;45554;51.096;16.976;2022-10-17T07:49:18;23.40;;;14.90;;
59685;SDS011;45554;51.096;16.976;2022-10-17T07:51:46;22.60;;;15.50;;
59685;SDS011;45554;51.096;16.976;2022-10-17T07:54:15;21.50;;;14.80;;
59685;SDS011;45554;51.096;16.976;2022-10-17T07:56:44;27.00;;;15.50;;
59685;SDS011;45554;51.096;16.976;2022-10-17T07:59:20;25.70;;;15.40;;
59685;SDS011;45554;51.096;16.976;2022-10-17T08:01:48;24.60;;;16.70;;
59685;SDS011;45554;51.096;16.976;2022-10-17T08:04:16;22.00;;;15.60;;
59685;SDS011;45554;51.096;16.976;2022-10-17T08:06:44;21.90;;;15.50;;
59685;SDS011;45554;51.096;16.976;2022-10-17T08:09:11;22.90;;;15.40;;
59685;SDS011;45554;51.096;16.976;2022-10-17T08:11:39;26.40;;;15.90;;
59685;SDS011;45554;51.096;16.976;2022-10-17T08:14:07;22.20;;;14.10;;
59685;SDS011;45554;51.096;16.976;2022-10-17T08:16:36;21.60;;;15.10;;
59685;SDS011;45554;51.096;16.976;2022-10-17T08:19:04;21.20;;;14.30;;
59685;SDS011;45554;51.096;16.976;2022-10-17T08:21:40;23.10;;;14.50;;
59685;SDS011;45554;51.096;16.976;2022-10-17T08:24:08;20.30;;;15.10;;
59685;SDS011;45554;51.096;16.976;2022-10-17T08:26:40;23.70;;;15.30;;
59685;SDS011;45554;51.096;16.976;2022-10-17T08:29:14;22.50;;;15.20;;
59685;SDS011;45554;51.096;16.976;2022-10-17T08:31:43;21.30;;;16.00;;
59685;SDS011;45554;51.096;16.976;2022-10-17T08:34:15;20.70;;;14.90;;
59685;SDS011;45554;51.096;16.976;2022-10-17T08:36:44;20.00;;;14.30;;
59685;SDS011;45554;51.096;16.976;2022-10-17T08:39:15;21.30;;;13.10;;
59685;SDS011;45554;51.096;16.976;2022-10-17T08:41:59;17.90;;;12.70;;
59685;SDS011;45554;51.096;16.976;2022-10-17T08:47:28;22.90;;;14.70;;
59685;SDS011;45554;51.096;16.976;2022-10-17T08:50:03;21.40;;;14.80;;
59685;SDS011;45554;51.096;16.976;2022-10-17T08:55:37;20.00;;;15.00;;
59685;SDS011;45554;51.096;16.976;2022-10-17T08:58:22;21.10;;;14.60;;
59685;SDS011;45554;51.096;16.976;2022-10-17T09:06:39;19.20;;;13.90;;
59685;SDS011;45554;51.096;16.976;2022-10-17T09:09:21;19.00;;;12.70;;
59685;SDS011;45554;51.096;16.976;2022-10-17T09:12:13;18.70;;;12.50;;
59685;SDS011;45554;51.096;16.976;2022-10-17T09:15:01;18.80;;;13.70;;
59685;SDS011;45554;51.096;16.976;2022-10-17T09:20:53;18.00;;;13.10;;
59685;SDS011;45554;51.096;16.976;2022-10-17T09:24:14;18.70;;;13.40;;
59685;SDS011;45554;51.096;16.976;2022-10-17T09:26:38;18.00;;;13.10;;
59685;SDS011;45554;51.096;16.976;2022-10-17T09:35:27;18.20;;;13.60;;
59685;SDS011;45554;51.096;16.976;2022-10-17T09:50:33;19.00;;;13.40;;
59685;SDS011;45554;51.096;16.976;2022-10-17T09:58:03;17.50;;;13.00;;
59685;SDS011;45554;51.096;16.976;2022-10-17T10:14:57;15.10;;;11.60;;
59685;SDS011;45554;51.096;16.976;2022-10-17T10:18:46;14.30;;;11.20;;
59685;SDS011;45554;51.096;16.976;2022-10-17T10:56:46;14.30;;;9.90;;
